createdAt,value
2019-05-16T00:01:22.031Z,4.60
2019-05-16T00:03:54.618Z,4.60
2019-05-16T00:06:30.404Z,4.80
2019-05-16T00:09:08.292Z,4.90
2019-05-16T00:11:43.133Z,4.80
2019-05-16T00:14:18.715Z,4.60
2019-05-16T00:16:49.490Z,4.70
2019-05-16T00:19:24.352Z,4.60
2019-05-16T00:21:58.094Z,4.60
2019-05-16T00:24:35.094Z,4.60
2019-05-16T00:27:08.725Z,4.50
2019-05-16T00:29:39.408Z,4.50
2019-05-16T00:32:19.130Z,4.30
2019-05-16T00:34:52.758Z,4.40
2019-05-16T00:37:28.733Z,4.20
2019-05-16T00:40:01.210Z,4.10
2019-05-16T00:42:30.415Z,4.20
2019-05-16T00:45:00.965Z,4.30
2019-05-16T00:47:33.483Z,4.20
2019-05-16T00:50:10.665Z,4.10
2019-05-16T00:52:42.157Z,4.00
2019-05-16T00:55:14.081Z,4.10
2019-05-16T00:57:48.158Z,4.10
2019-05-16T01:00:22.661Z,4.00
2019-05-16T01:02:57.738Z,3.90
2019-05-16T01:05:32.874Z,4.00
2019-05-16T01:08:08.688Z,3.90
2019-05-16T01:10:42.844Z,3.90
2019-05-16T01:13:15.921Z,3.90
2019-05-16T01:15:50.097Z,3.80
2019-05-16T01:18:23.522Z,3.70
2019-05-16T01:20:58.600Z,3.70
2019-05-16T01:23:31.431Z,3.80
2019-05-16T01:26:03.314Z,3.80
2019-05-16T01:28:43.696Z,3.80
2019-05-16T01:31:15.265Z,3.60
2019-05-16T01:33:48.824Z,3.70
2019-05-16T01:36:33.335Z,3.70
2019-05-16T01:38:58.366Z,3.90
2019-05-16T01:41:30.830Z,3.70
2019-05-16T01:44:03.474Z,3.70
2019-05-16T01:46:39.092Z,3.80
2019-05-16T01:49:11.592Z,3.70
2019-05-16T01:51:45.128Z,3.70
2019-05-16T01:54:18.008Z,3.70
2019-05-16T01:56:56.139Z,3.70
2019-05-16T01:59:28.392Z,3.70
2019-05-16T02:02:00.890Z,3.70
2019-05-16T02:04:31.729Z,3.60
2019-05-16T02:07:02.884Z,3.60
2019-05-16T02:09:38.410Z,3.50
2019-05-16T02:12:10.738Z,3.60
2019-05-16T02:14:41.420Z,3.50
2019-05-16T02:17:18.142Z,3.50
2019-05-16T02:19:53.445Z,3.50
2019-05-16T02:22:28.546Z,3.60
2019-05-16T02:25:04.411Z,3.50
2019-05-16T02:27:41.060Z,3.50
2019-05-16T02:30:21.689Z,3.40
2019-05-16T02:32:55.243Z,3.50
2019-05-16T02:35:26.227Z,3.50
2019-05-16T02:38:02.030Z,3.50
2019-05-16T02:40:35.849Z,3.50
2019-05-16T02:43:07.857Z,3.50
2019-05-16T02:45:42.687Z,3.60
2019-05-16T02:48:17.368Z,3.50
2019-05-16T02:50:51.277Z,3.40
2019-05-16T02:53:25.022Z,3.40
2019-05-16T02:55:57.397Z,3.40
2019-05-16T02:58:31.132Z,3.50
2019-05-16T03:01:04.967Z,3.60
2019-05-16T03:03:40.170Z,3.60
2019-05-16T03:06:11.210Z,3.50
2019-05-16T03:08:42.356Z,3.60
2019-05-16T03:11:12.265Z,3.60
2019-05-16T03:13:44.474Z,3.60
2019-05-16T03:16:14.413Z,3.60
2019-05-16T03:18:44.893Z,3.70
2019-05-16T03:21:15.588Z,3.80
2019-05-16T03:23:50.718Z,4.00
2019-05-16T03:26:25.394Z,4.10
2019-05-16T03:28:56.415Z,4.20
2019-05-16T03:31:33.679Z,4.40
2019-05-16T03:34:07.247Z,4.50
2019-05-16T03:36:43.792Z,4.60
2019-05-16T03:39:12.121Z,4.60
2019-05-16T03:41:50.564Z,4.80
2019-05-16T03:44:24.787Z,5.10
2019-05-16T03:46:55.662Z,5.30
2019-05-16T03:49:31.569Z,5.30
2019-05-16T03:52:03.871Z,5.50
2019-05-16T03:54:33.742Z,5.60
2019-05-16T03:57:05.806Z,5.80
2019-05-16T03:59:51.589Z,6.00
2019-05-16T04:02:23.397Z,6.10
2019-05-16T04:04:54.326Z,6.50
2019-05-16T04:07:27.467Z,6.70
2019-05-16T04:10:02.226Z,7.00
2019-05-16T04:12:35.586Z,7.30
2019-05-16T04:15:11.489Z,7.60
2019-05-16T04:17:44.315Z,7.80
2019-05-16T04:20:23.732Z,8.00
2019-05-16T04:23:01.178Z,8.20
2019-05-16T04:25:33.725Z,8.60
2019-05-16T04:28:11.698Z,9.10
2019-05-16T04:30:44.391Z,9.60
2019-05-16T04:33:21.968Z,10.00
2019-05-16T04:35:53.400Z,10.30
2019-05-16T04:38:36.433Z,10.10
2019-05-16T04:41:04.982Z,10.30
2019-05-16T04:43:41.680Z,10.30
2019-05-16T04:46:13.495Z,10.50
2019-05-16T04:49:06.712Z,10.70
2019-05-16T04:51:36.711Z,10.50
2019-05-16T04:54:11.334Z,10.40
2019-05-16T04:57:01.504Z,10.30
2019-05-16T04:59:41.701Z,10.40
2019-05-16T05:02:15.354Z,10.30
2019-05-16T05:04:50.723Z,10.60
2019-05-16T05:07:24.263Z,10.90
2019-05-16T05:10:00.734Z,10.90
2019-05-16T05:12:34.349Z,11.00
2019-05-16T05:15:11.253Z,10.40
2019-05-16T05:17:41.858Z,10.30
2019-05-16T05:20:13.783Z,10.50
2019-05-16T05:22:44.861Z,10.30
2019-05-16T05:25:14.125Z,9.90
2019-05-16T05:27:45.448Z,10.00
2019-05-16T05:30:15.987Z,10.20
2019-05-16T05:32:53.055Z,10.50
2019-05-16T05:35:24.735Z,10.40
2019-05-16T05:38:00.343Z,10.30
2019-05-16T05:40:32.513Z,10.60
2019-05-16T05:43:10.559Z,10.50
2019-05-16T05:45:47.317Z,10.20
2019-05-16T05:48:23.118Z,10.20
2019-05-16T05:50:55.178Z,10.20
2019-05-16T05:53:29.841Z,10.50
2019-05-16T05:56:02.025Z,10.70
2019-05-16T05:58:37.581Z,10.90
2019-05-16T06:01:11.199Z,11.20
2019-05-16T06:03:44.202Z,11.50
2019-05-16T06:06:16.274Z,11.60
2019-05-16T06:08:50.355Z,11.70
2019-05-16T06:11:21.975Z,12.20
2019-05-16T06:14:00.458Z,12.70
2019-05-16T06:16:34.350Z,12.70
2019-05-16T06:19:11.134Z,12.70
2019-05-16T06:21:45.243Z,12.30
2019-05-16T06:24:20.058Z,12.40
2019-05-16T06:26:55.352Z,12.40
2019-05-16T06:29:26.192Z,12.30
2019-05-16T06:32:01.112Z,11.90
2019-05-16T06:34:34.685Z,11.60
2019-05-16T06:37:09.789Z,11.70
2019-05-16T06:39:45.518Z,11.50
2019-05-16T06:42:20.592Z,11.80
2019-05-16T06:44:54.258Z,12.30
2019-05-16T06:47:26.241Z,13.10
2019-05-16T06:50:00.064Z,13.40
2019-05-16T06:52:36.491Z,13.70
2019-05-16T06:55:10.091Z,13.80
2019-05-16T06:57:44.525Z,13.40
2019-05-16T07:00:17.278Z,13.70
2019-05-16T07:02:49.958Z,14.00
2019-05-16T07:05:25.305Z,13.50
2019-05-16T07:08:00.909Z,12.60
2019-05-16T07:10:35.633Z,13.00
2019-05-16T07:13:07.312Z,13.10
2019-05-16T07:15:41.360Z,13.10
2019-05-16T07:18:13.615Z,13.30
2019-05-16T07:20:44.500Z,12.70
2019-05-16T07:23:20.649Z,12.80
2019-05-16T07:25:54.858Z,12.90
2019-05-16T07:28:31.630Z,13.60
2019-05-16T07:31:14.891Z,13.90
2019-05-16T07:33:40.869Z,13.80
2019-05-16T07:36:16.073Z,14.30
2019-05-16T07:38:54.031Z,14.20
2019-05-16T07:41:25.398Z,13.70
2019-05-16T07:44:00.967Z,13.80
2019-05-16T07:46:32.045Z,13.70
2019-05-16T07:49:03.840Z,13.90
2019-05-16T07:51:34.838Z,14.10
2019-05-16T07:54:10.344Z,13.70
2019-05-16T07:56:42.014Z,14.10
2019-05-16T07:59:14.553Z,14.30
2019-05-16T08:01:45.218Z,14.40
2019-05-16T08:04:16.497Z,14.00
2019-05-16T08:06:47.178Z,13.00
2019-05-16T08:09:21.121Z,13.00
2019-05-16T08:11:53.718Z,13.10
2019-05-16T08:14:30.359Z,12.80
2019-05-16T08:17:02.861Z,13.40
2019-05-16T08:19:36.818Z,13.70
2019-05-16T08:22:10.715Z,13.70
2019-05-16T08:24:44.053Z,13.70
2019-05-16T08:27:20.796Z,13.50
2019-05-16T08:29:52.497Z,13.10
2019-05-16T08:32:26.161Z,13.10
2019-05-16T08:34:56.987Z,13.10
2019-05-16T08:37:38.511Z,13.20
2019-05-16T08:40:01.013Z,13.30
2019-05-16T08:42:32.408Z,13.70
2019-05-16T08:48:02.089Z,13.70
2019-05-16T08:50:05.528Z,13.50
2019-05-16T08:50:35.337Z,14.10
2019-05-16T08:53:14.979Z,14.20
2019-05-16T08:55:46.369Z,14.10
2019-05-16T08:58:22.723Z,13.90
2019-05-16T09:01:02.314Z,14.10
2019-05-16T09:03:34.687Z,13.90
2019-05-16T09:06:11.983Z,13.50
2019-05-16T09:08:47.681Z,13.30
2019-05-16T09:11:31.375Z,13.40
2019-05-16T09:13:53.381Z,13.10
2019-05-16T09:16:23.898Z,12.90
2019-05-16T09:18:57.304Z,13.50
2019-05-16T09:21:28.450Z,13.20
2019-05-16T09:24:07.047Z,13.30
2019-05-16T09:26:41.017Z,13.00
2019-05-16T09:29:17.615Z,13.10
2019-05-16T09:32:08.023Z,13.20
2019-05-16T09:34:28.384Z,12.90
2019-05-16T09:37:02.292Z,12.80
2019-05-16T09:39:31.491Z,13.00
2019-05-16T09:42:02.550Z,12.70
2019-05-16T09:44:32.118Z,13.00
2019-05-16T09:47:07.579Z,13.00
2019-05-16T09:49:43.289Z,13.20
2019-05-16T09:52:17.030Z,13.30
2019-05-16T09:54:48.402Z,13.20
2019-05-16T09:57:20.523Z,12.80
2019-05-16T09:59:54.345Z,12.90
2019-05-16T10:02:27.572Z,12.80
2019-05-16T10:04:58.514Z,13.00
2019-05-16T10:07:30.818Z,13.10
2019-05-16T10:10:02.292Z,13.30
2019-05-16T10:12:37.131Z,13.20
2019-05-16T10:15:08.268Z,13.30
2019-05-16T10:17:40.449Z,14.00
2019-05-16T10:20:13.340Z,13.80
2019-05-16T10:22:50.623Z,13.60
2019-05-16T10:25:27.665Z,13.70
2019-05-16T10:28:00.353Z,13.60
2019-05-16T10:30:31.177Z,13.60
2019-05-16T10:33:06.880Z,13.40
2019-05-16T10:35:39.749Z,13.70
2019-05-16T10:38:13.846Z,13.10
2019-05-16T10:40:48.416Z,13.00
2019-05-16T10:43:21.785Z,13.50
2019-05-16T10:45:53.801Z,13.60
2019-05-16T10:48:27.048Z,13.40
2019-05-16T10:50:58.163Z,13.90
2019-05-16T10:54:00.019Z,13.10
2019-05-16T10:56:10.698Z,13.40
2019-05-16T10:59:10.609Z,13.90
2019-05-16T11:01:27.726Z,13.90
2019-05-16T11:03:56.811Z,14.10
2019-05-16T11:06:33.610Z,14.30
2019-05-16T11:09:06.490Z,13.70
2019-05-16T11:11:41.872Z,13.50
2019-05-16T11:14:13.745Z,13.60
2019-05-16T11:16:47.195Z,13.50
2019-05-16T11:19:24.237Z,13.20
2019-05-16T11:21:57.190Z,13.00
2019-05-16T11:24:29.351Z,13.30
2019-05-16T11:26:58.092Z,13.00
2019-05-16T11:29:28.302Z,13.20
2019-05-16T11:32:00.173Z,13.50
2019-05-16T11:34:32.176Z,12.80
2019-05-16T11:37:03.815Z,13.20
2019-05-16T11:39:38.615Z,13.20
2019-05-16T11:42:17.705Z,13.40
2019-05-16T11:44:51.415Z,13.60
2019-05-16T11:47:23.026Z,13.80
2019-05-16T11:49:57.901Z,13.90
2019-05-16T11:52:33.425Z,13.60
2019-05-16T11:55:09.575Z,13.80
2019-05-16T11:57:44.077Z,14.10
2019-05-16T12:00:18.244Z,13.50
2019-05-16T12:02:53.819Z,13.50
2019-05-16T12:05:27.178Z,13.80
2019-05-16T12:08:00.432Z,14.10
2019-05-16T12:10:31.128Z,15.00
2019-05-16T12:13:01.033Z,14.70
2019-05-16T12:15:33.467Z,14.40
2019-05-16T12:18:09.146Z,15.00
2019-05-16T12:20:44.223Z,14.70
2019-05-16T12:23:22.288Z,14.40
2019-05-16T12:25:56.724Z,14.20
2019-05-16T12:28:27.240Z,14.90
2019-05-16T12:31:03.231Z,14.30
2019-05-16T12:33:37.995Z,14.30
2019-05-16T12:36:14.618Z,14.10
2019-05-16T12:38:47.089Z,13.80
2019-05-16T12:41:19.190Z,14.30
2019-05-16T12:43:57.539Z,14.70
2019-05-16T12:46:27.170Z,14.60
2019-05-16T12:48:58.289Z,14.70
2019-05-16T12:51:28.359Z,14.50
2019-05-16T12:53:58.318Z,14.10
2019-05-16T12:56:29.905Z,14.30
2019-05-16T12:58:59.529Z,14.60
2019-05-16T13:01:33.963Z,15.00
2019-05-16T13:04:01.355Z,14.60
2019-05-16T13:06:31.562Z,15.20
2019-05-16T13:09:03.224Z,14.40
2019-05-16T13:11:34.175Z,14.90
2019-05-16T13:14:11.075Z,14.60
2019-05-16T13:16:43.195Z,15.10
2019-05-16T13:19:18.312Z,14.90
2019-05-16T13:21:53.036Z,14.40
2019-05-16T13:24:27.872Z,14.70
2019-05-16T13:27:00.686Z,15.30
2019-05-16T13:29:37.086Z,15.20
2019-05-16T13:32:10.729Z,15.50
2019-05-16T13:34:45.274Z,15.10
2019-05-16T13:37:19.950Z,15.40
2019-05-16T13:39:53.677Z,15.50
2019-05-16T13:42:27.232Z,14.70
2019-05-16T13:45:00.555Z,14.90
2019-05-16T13:47:37.637Z,15.10
2019-05-16T13:50:12.928Z,15.50
2019-05-16T13:52:48.125Z,15.20
2019-05-16T13:55:22.188Z,15.00
2019-05-16T13:57:56.554Z,14.80
2019-05-16T14:00:30.226Z,14.50
2019-05-16T14:03:07.470Z,14.00
2019-05-16T14:05:44.458Z,14.20
2019-05-16T14:08:17.058Z,14.30
2019-05-16T14:10:49.857Z,14.00
2019-05-16T14:13:28.021Z,14.20
2019-05-16T14:16:01.746Z,13.80
2019-05-16T14:18:34.669Z,14.00
2019-05-16T14:21:06.928Z,14.20
2019-05-16T14:23:39.293Z,14.80
2019-05-16T14:26:10.993Z,14.60
2019-05-16T14:28:44.726Z,14.70
2019-05-16T14:31:17.519Z,14.70
2019-05-16T14:33:52.681Z,13.90
2019-05-16T14:36:27.908Z,13.90
2019-05-16T14:39:02.205Z,13.90
2019-05-16T14:41:37.246Z,14.20
2019-05-16T14:44:17.962Z,13.80
2019-05-16T14:46:47.531Z,13.80
2019-05-16T14:49:20.264Z,13.90
2019-05-16T14:51:59.022Z,13.70
2019-05-16T14:54:31.125Z,13.80
2019-05-16T14:57:03.104Z,14.20
2019-05-16T14:59:36.339Z,14.30
2019-05-16T15:02:08.158Z,13.60
2019-05-16T15:04:41.835Z,13.60
2019-05-16T15:07:19.439Z,13.50
2019-05-16T15:09:50.325Z,13.30
2019-05-16T15:12:22.198Z,13.20
2019-05-16T15:15:14.319Z,13.00
2019-05-16T15:17:30.115Z,12.90
2019-05-16T15:20:10.256Z,12.60
2019-05-16T15:22:42.748Z,12.60
2019-05-16T15:25:18.271Z,12.60
2019-05-16T15:27:50.310Z,12.80
2019-05-16T15:30:24.101Z,12.70
2019-05-16T15:32:57.021Z,12.40
2019-05-16T15:35:30.694Z,12.70
2019-05-16T15:38:03.223Z,12.70
2019-05-16T15:40:34.021Z,13.30
2019-05-16T15:43:07.503Z,13.40
2019-05-16T15:45:44.166Z,13.00
2019-05-16T15:48:19.431Z,12.70
2019-05-16T15:50:51.215Z,12.90
2019-05-16T15:53:21.300Z,13.20
2019-05-16T15:55:57.556Z,13.00
2019-05-16T15:58:28.126Z,12.90
2019-05-16T16:01:01.677Z,13.10
2019-05-16T16:03:33.602Z,12.80
2019-05-16T16:06:08.232Z,12.70
2019-05-16T16:08:40.057Z,13.20
2019-05-16T16:11:17.175Z,13.20
2019-05-16T16:13:48.392Z,12.90
2019-05-16T16:16:26.654Z,13.40
2019-05-16T16:18:57.508Z,13.10
2019-05-16T16:21:29.301Z,13.00
2019-05-16T16:24:05.250Z,13.10
2019-05-16T16:26:38.181Z,13.30
2019-05-16T16:29:10.294Z,13.10
2019-05-16T16:31:42.334Z,13.00
2019-05-16T16:34:17.356Z,12.90
2019-05-16T16:36:51.513Z,12.40
2019-05-16T16:39:26.938Z,12.30
2019-05-16T16:41:58.431Z,12.50
2019-05-16T16:44:30.861Z,12.10
2019-05-16T16:47:02.272Z,12.10
2019-05-16T16:49:33.949Z,11.80
2019-05-16T16:52:07.444Z,11.60
2019-05-16T16:54:37.706Z,11.50
2019-05-16T16:57:11.609Z,11.80
2019-05-16T16:59:43.284Z,11.80
2019-05-16T17:02:14.233Z,12.00
2019-05-16T17:04:51.174Z,11.80
2019-05-16T17:07:21.308Z,11.80
2019-05-16T17:09:56.442Z,11.70
2019-05-16T17:12:29.265Z,11.20
2019-05-16T17:15:01.665Z,11.40
2019-05-16T17:17:39.177Z,12.00
2019-05-16T17:20:10.557Z,12.00
2019-05-16T17:22:46.722Z,11.90
2019-05-16T17:25:20.675Z,11.40
2019-05-16T17:27:52.534Z,11.80
2019-05-16T17:30:26.069Z,12.30
2019-05-16T17:32:56.707Z,12.00
2019-05-16T17:35:29.611Z,11.80
2019-05-16T17:38:01.554Z,11.50
2019-05-16T17:40:33.827Z,11.20
2019-05-16T17:43:07.362Z,11.00
2019-05-16T17:45:47.084Z,10.90
2019-05-16T17:48:19.483Z,10.80
2019-05-16T17:50:50.591Z,11.00
2019-05-16T17:53:26.528Z,11.20
2019-05-16T17:56:00.055Z,11.20
2019-05-16T17:58:32.689Z,11.40
2019-05-16T18:01:06.840Z,11.30
2019-05-16T18:03:42.615Z,11.20
2019-05-16T18:06:17.012Z,10.80
2019-05-16T18:08:49.526Z,10.80
2019-05-16T18:14:22.257Z,10.60
2019-05-16T18:16:59.654Z,11.00
2019-05-16T18:19:28.981Z,10.50
2019-05-16T18:21:59.251Z,10.30
2019-05-16T18:24:29.991Z,10.30
2019-05-16T18:27:00.988Z,10.40
2019-05-16T18:29:51.716Z,10.20
2019-05-16T18:32:26.632Z,10.20
2019-05-16T18:34:56.588Z,10.00
2019-05-16T18:37:27.429Z,9.90
2019-05-16T18:39:58.157Z,9.80
2019-05-16T18:42:29.400Z,10.00
2019-05-16T18:45:02.352Z,10.30
2019-05-16T18:47:37.588Z,10.50
2019-05-16T18:50:10.824Z,11.00
2019-05-16T18:52:46.882Z,11.20
2019-05-16T18:55:17.103Z,11.40
2019-05-16T18:57:50.941Z,11.50
2019-05-16T19:00:22.645Z,11.50
2019-05-16T19:02:59.458Z,11.50
2019-05-16T19:05:37.602Z,11.40
2019-05-16T19:08:16.292Z,11.20
2019-05-16T19:10:47.773Z,11.10
2019-05-16T19:13:18.468Z,11.10
2019-05-16T19:15:50.061Z,11.00
2019-05-16T19:18:23.500Z,11.00
2019-05-16T19:20:57.057Z,11.10
2019-05-16T19:23:33.987Z,11.10
2019-05-16T19:26:27.209Z,10.90
2019-05-16T19:29:00.822Z,10.70
2019-05-16T19:31:38.869Z,10.90
2019-05-16T19:34:09.281Z,10.80
2019-05-16T19:36:39.219Z,10.80
2019-05-16T19:39:11.154Z,10.70
2019-05-16T19:41:46.639Z,10.40
2019-05-16T19:44:20.989Z,10.30
2019-05-16T19:46:52.025Z,10.40
2019-05-16T19:49:27.641Z,10.30
2019-05-16T19:52:01.651Z,10.10
2019-05-16T19:54:32.317Z,10.10
2019-05-16T19:57:23.013Z,10.10
2019-05-16T19:59:56.812Z,10.10
2019-05-16T20:02:29.487Z,9.80
2019-05-16T20:05:02.953Z,9.80
2019-05-16T20:07:37.179Z,9.90
2019-05-16T20:10:09.771Z,9.80
2019-05-16T20:12:38.574Z,9.50
2019-05-16T20:15:11.894Z,9.40
2019-05-16T20:18:19.699Z,9.40
2019-05-16T20:20:51.902Z,9.40
2019-05-16T20:23:23.107Z,9.30
2019-05-16T20:25:57.161Z,9.10
2019-05-16T20:28:27.909Z,9.20
2019-05-16T20:30:59.881Z,9.10
2019-05-16T20:33:31.025Z,9.10
2019-05-16T20:36:01.222Z,9.00
2019-05-16T20:38:30.893Z,8.90
2019-05-16T20:41:07.827Z,8.80
2019-05-16T20:43:39.630Z,8.80
2019-05-16T20:46:16.901Z,8.70
2019-05-16T20:48:47.634Z,8.70
2019-05-16T20:51:20.274Z,8.70
2019-05-16T20:53:52.469Z,8.60
2019-05-16T20:56:26.461Z,8.50
2019-05-16T20:59:00.045Z,8.50
2019-05-16T21:01:31.129Z,8.40
2019-05-16T21:04:06.817Z,8.40
2019-05-16T21:06:38.962Z,8.30
2019-05-16T21:09:08.665Z,8.30
2019-05-16T21:11:41.741Z,8.30
2019-05-16T21:14:16.457Z,8.00
2019-05-16T21:16:51.477Z,8.00
2019-05-16T21:19:30.919Z,8.10
2019-05-16T21:22:02.423Z,8.00
2019-05-16T21:24:37.214Z,7.90
2019-05-16T21:27:07.204Z,7.80
2019-05-16T21:29:38.947Z,7.80
2019-05-16T21:32:08.518Z,7.70
2019-05-16T21:34:42.189Z,7.70
2019-05-16T21:37:17.357Z,7.80
2019-05-16T21:39:48.399Z,7.90
2019-05-16T21:42:27.099Z,7.80
2019-05-16T21:44:59.563Z,7.60
2019-05-16T21:47:33.156Z,7.30
2019-05-16T21:50:07.409Z,7.40
2019-05-16T21:52:40.071Z,7.40
2019-05-16T21:55:09.743Z,7.40
2019-05-16T21:57:39.768Z,7.20
2019-05-16T22:00:12.280Z,7.00
2019-05-16T22:02:46.665Z,7.20
2019-05-16T22:05:20.017Z,7.10
2019-05-16T22:07:53.937Z,7.10
2019-05-16T22:10:28.776Z,7.10
2019-05-16T22:13:02.558Z,7.10
2019-05-16T22:15:39.379Z,7.10
2019-05-16T22:18:11.773Z,7.00
2019-05-16T22:20:44.059Z,6.90
2019-05-16T22:23:14.188Z,6.90
2019-05-16T22:25:49.373Z,6.90
2019-05-16T22:28:20.358Z,6.80
2019-05-16T22:30:58.117Z,6.80
2019-05-16T22:33:29.452Z,6.80
2019-05-16T22:36:01.229Z,6.60
2019-05-16T22:38:34.261Z,6.60
2019-05-16T22:41:10.724Z,6.60
2019-05-16T22:43:46.552Z,6.70
2019-05-16T22:46:21.751Z,6.70
2019-05-16T22:48:54.435Z,6.50
2019-05-16T22:51:23.686Z,6.30
2019-05-16T22:53:58.490Z,6.50
2019-05-16T22:56:29.269Z,6.50
2019-05-16T22:59:04.277Z,6.50
2019-05-16T23:01:37.831Z,6.30
2019-05-16T23:04:09.307Z,6.30
2019-05-16T23:06:47.417Z,6.20
2019-05-16T23:09:26.966Z,6.30
2019-05-16T23:12:00.260Z,6.30
2019-05-16T23:14:31.279Z,6.20
2019-05-16T23:17:04.509Z,6.20
2019-05-16T23:19:41.581Z,6.20
2019-05-16T23:22:17.999Z,6.20
2019-05-16T23:24:52.001Z,6.10
2019-05-16T23:27:27.285Z,5.90
2019-05-16T23:30:01.911Z,6.00
2019-05-16T23:32:36.503Z,6.00
2019-05-16T23:35:10.652Z,5.90
2019-05-16T23:37:43.169Z,5.90
2019-05-16T23:40:16.455Z,5.80
2019-05-16T23:42:48.412Z,5.70
2019-05-16T23:45:19.374Z,5.80
2019-05-16T23:47:50.196Z,5.90
2019-05-16T23:50:27.577Z,5.70
2019-05-16T23:53:03.504Z,5.90
2019-05-16T23:55:38.138Z,5.80
2019-05-16T23:58:09.867Z,5.60
